Time;durP1;ratioP1;P1;durP2;ratioP2;P2;SDS_P1;SDS_P2;PMS_P1;PMS_P2;Temp;Humidity;BMP_temperature;BMP_pressure;BME280_temperature;BME280_humidity;BME280_pressure;Samples;Min_cycle;Max_cycle;Signal;HPM_P1;HPM_P2
2023/08/02 00:01:18;;;;;;;4.68;2.88;;;;;;;15.31;82.70;99660.59;7395526;19;20023;-66
2023/08/02 00:03:46;;;;;;;3.40;2.40;;;;;;;15.27;82.72;99664.38;7396700;19;20086;-66
2023/08/02 00:06:15;;;;;;;7.47;2.90;;;;;;;15.21;82.59;99668.22;7394466;19;20087;-66
2023/08/02 00:08:43;;;;;;;4.78;2.95;;;;;;;15.19;83.13;99661.31;7396220;19;20431;-66
2023/08/02 00:11:17;;;;;;;5.15;2.45;;;;;;;15.15;83.14;99661.50;7396716;19;20023;-66
2023/08/02 00:13:48;;;;;;;3.03;2.28;;;;;;;15.14;83.03;99657.16;7394729;19;20024;-67
2023/08/02 00:16:17;;;;;;;9.15;6.47;;;;;;;15.13;82.90;99665.19;7394269;19;20513;-66
2023/08/02 00:18:45;;;;;;;6.38;2.85;;;;;;;15.11;83.11;99654.72;7394582;19;20018;-66
2023/08/02 00:21:14;;;;;;;4.93;2.80;;;;;;;15.08;82.69;99646.94;7395752;19;20014;-66
2023/08/02 00:23:42;;;;;;;3.78;2.60;;;;;;;15.06;82.97;99651.44;7394400;19;20011;-67
2023/08/02 00:26:11;;;;;;;6.32;2.75;;;;;;;15.04;83.14;99657.75;7395593;19;20380;-69
2023/08/02 00:28:39;;;;;;;5.88;2.90;;;;;;;15.02;83.21;99657.84;7395928;19;20022;-66
2023/08/02 00:31:10;;;;;;;6.25;2.80;;;;;;;15.02;83.33;99668.44;7395787;19;20014;-67
2023/08/02 00:33:39;;;;;;;3.40;2.22;;;;;;;15.00;83.38;99667.69;7395041;19;20035;-66
2023/08/02 00:36:07;;;;;;;9.63;2.83;;;;;;;14.97;83.54;99657.28;7394913;19;20477;-66
2023/08/02 00:38:35;;;;;;;4.68;3.10;;;;;;;14.94;83.48;99665.38;7394946;19;20007;-66
2023/08/02 00:41:05;;;;;;;6.00;3.00;;;;;;;14.91;83.64;99669.06;7395254;19;20015;-67
2023/08/02 00:43:40;;;;;;;5.32;2.63;;;;;;;14.87;84.16;99666.66;7393457;19;20477;-66
2023/08/02 00:46:12;;;;;;;7.10;2.55;;;;;;;14.85;84.15;99669.41;7395026;19;20390;-66
2023/08/02 00:48:41;;;;;;;3.00;2.35;;;;;;;14.82;84.13;99670.44;7394109;19;20019;-67
2023/08/02 00:51:12;;;;;;;3.85;2.95;;;;;;;14.80;84.03;99671.47;7393587;19;20011;-67
2023/08/02 00:53:41;;;;;;;3.65;3.03;;;;;;;14.78;84.41;99675.97;7398060;19;20079;-66
2023/08/02 00:56:09;;;;;;;4.43;2.75;;;;;;;14.76;84.41;99683.97;7399459;19;20415;-66
2023/08/02 00:58:38;;;;;;;5.15;2.88;;;;;;;14.73;84.66;99676.22;7402420;19;20014;-67
2023/08/02 01:01:09;;;;;;;4.57;2.70;;;;;;;14.72;84.69;99678.94;7402436;19;20015;-67
2023/08/02 01:03:44;;;;;;;5.95;3.25;;;;;;;14.70;84.72;99680.81;7402910;19;20010;-67
2023/08/02 01:06:17;;;;;;;8.35;2.92;;;;;;;14.68;85.31;99683.53;7402118;19;20014;-68
2023/08/02 01:08:49;;;;;;;4.53;3.30;;;;;;;14.68;85.00;99680.06;7402163;19;20374;-67
2023/08/02 01:11:25;;;;;;;4.75;2.75;;;;;;;14.68;85.08;99678.25;7402896;19;20024;-67
2023/08/02 01:13:56;;;;;;;5.45;3.03;;;;;;;14.69;84.80;99668.56;7399706;19;20027;-66
2023/08/02 01:16:26;;;;;;;5.93;3.10;;;;;;;14.68;84.78;99672.97;7401643;19;20010;-65
2023/08/02 01:18:57;;;;;;;6.53;3.17;;;;;;;14.68;85.07;99666.84;7402124;19;20014;-65
2023/08/02 01:21:28;;;;;;;5.70;3.20;;;;;;;14.66;85.12;99665.16;7402139;19;20014;-66
2023/08/02 01:23:56;;;;;;;4.30;2.80;;;;;;;14.64;85.05;99666.13;7401668;19;20031;-66
2023/08/02 01:26:26;;;;;;;9.43;3.38;;;;;;;14.64;85.28;99676.69;7400925;19;20011;-66
2023/08/02 01:28:56;;;;;;;4.55;3.08;;;;;;;14.61;85.32;99672.44;7401859;19;20011;-66
2023/08/02 01:31:25;;;;;;;4.82;3.15;;;;;;;14.60;85.51;99675.19;7401923;19;20018;-67
2023/08/02 01:33:58;;;;;;;6.13;3.30;;;;;;;14.59;85.46;99673.47;7399584;19;20477;-67
2023/08/02 01:36:29;;;;;;;5.65;3.30;;;;;;;14.58;85.83;99672.59;7400966;19;20035;-67
2023/08/02 01:38:57;;;;;;;5.03;3.38;;;;;;;14.59;85.74;99665.56;7400224;19;20399;-66
2023/08/02 01:41:26;;;;;;;4.13;3.30;;;;;;;14.58;85.62;99663.84;7401923;19;20027;-66
2023/08/02 01:43:54;;;;;;;4.97;3.30;;;;;;;14.56;85.96;99666.56;7398247;19;20027;-66
2023/08/02 01:46:23;;;;;;;5.65;3.25;;;;;;;14.55;85.71;99666.66;7400404;19;20014;-65
2023/08/02 01:48:51;;;;;;;8.70;3.80;;;;;;;14.53;85.99;99663.25;7400852;19;20473;-66
2023/08/02 01:51:20;;;;;;;6.30;3.60;;;;;;;14.50;85.99;99666.91;7398535;19;20069;-66
2023/08/02 01:53:51;;;;;;;5.80;4.00;;;;;;;14.47;86.15;99664.44;7399542;19;20018;-67
2023/08/02 01:56:20;;;;;;;4.85;3.25;;;;;;;14.45;86.47;99661.03;7398368;19;20018;-67
2023/08/02 01:58:48;;;;;;;6.10;3.83;;;;;;;14.42;86.40;99663.81;7398335;19;20035;-67
2023/08/02 02:01:16;;;;;;;4.93;3.67;;;;;;;14.41;86.61;99659.50;7397823;19;20371;-67
2023/08/02 02:03:45;;;;;;;7.35;3.53;;;;;;;14.40;86.68;99655.16;7400575;19;20031;-67
2023/08/02 02:06:13;;;;;;;4.68;3.45;;;;;;;14.37;87.07;99650.91;7396143;19;20481;-67
2023/08/02 02:08:42;;;;;;;4.47;3.45;;;;;;;14.35;87.16;99652.78;7400543;19;20011;-67
2023/08/02 02:11:13;;;;;;;5.53;3.28;;;;;;;14.33;87.05;99652.00;7400071;19;20002;-67
2023/08/02 02:13:41;;;;;;;5.13;3.58;;;;;;;14.30;87.29;99658.28;7398793;19;20508;-67
2023/08/02 02:16:10;;;;;;;6.15;3.58;;;;;;;14.29;87.25;99655.75;7399709;19;20029;-66
2023/08/02 02:18:38;;;;;;;8.10;3.70;;;;;;;14.27;87.77;99661.09;7397699;19;20014;-66
2023/08/02 02:21:06;;;;;;;8.10;4.43;;;;;;;14.27;87.48;99652.34;7400064;19;20015;-67
2023/08/02 02:23:35;;;;;;;5.47;3.80;;;;;;;14.26;87.61;99661.19;7397196;19;20499;-66
2023/08/02 02:26:03;;;;;;;6.10;3.80;;;;;;;14.25;87.63;99651.56;7399455;19;20018;-66
2023/08/02 02:28:34;;;;;;;6.20;3.63;;;;;;;14.24;87.66;99653.38;7399826;19;20018;-66
2023/08/02 02:31:04;;;;;;;8.27;3.75;;;;;;;14.24;87.70;99653.38;7399924;19;20014;-66
2023/08/02 02:33:32;;;;;;;5.30;3.67;;;;;;;14.23;88.03;99659.56;7397047;19;20014;-66
2023/08/02 02:36:01;;;;;;;6.57;3.70;;;;;;;14.23;87.97;99653.44;7399096;19;20023;-66
2023/08/02 02:38:31;;;;;;;5.78;3.20;;;;;;;14.24;87.89;99657.78;7398970;19;20007;-67
2023/08/02 02:40:59;;;;;;;6.97;4.20;;;;;;;14.24;87.80;99650.72;7397550;19;20039;-67
2023/08/02 02:43:28;;;;;;;7.47;3.75;;;;;;;14.23;87.88;99645.50;7399315;19;20018;-67
2023/08/02 02:45:59;;;;;;;4.28;3.83;;;;;;;14.23;88.21;99646.38;7398892;19;20014;-66
2023/08/02 02:48:27;;;;;;;4.40;3.83;;;;;;;14.23;88.24;99648.16;7396777;19;20355;-67
2023/08/02 02:50:56;;;;;;;8.05;4.40;;;;;;;14.21;88.32;99642.97;7398842;19;20015;-67
2023/08/02 02:53:25;;;;;;;10.13;3.80;;;;;;;14.20;88.19;99637.78;7398583;19;20018;-67
2023/08/02 02:55:54;;;;;;;6.43;3.90;;;;;;;14.18;88.49;99646.63;7398599;19;20021;-66
2023/08/02 02:58:22;;;;;;;7.10;4.20;;;;;;;14.17;88.29;99636.16;7398355;19;20382;-67
2023/08/02 03:00:53;;;;;;;4.82;4.18;;;;;;;14.14;88.85;99639.81;7398577;19;20015;-67
2023/08/02 03:03:24;;;;;;;10.30;4.65;;;;;;;14.11;88.86;99645.25;7396163;19;20028;-67
2023/08/02 03:05:55;;;;;;;7.28;4.38;;;;;;;14.09;88.51;99643.63;7397912;19;20481;-67
2023/08/02 03:08:23;;;;;;;7.47;4.18;;;;;;;14.06;88.96;99649.09;7395835;19;20010;-67
2023/08/02 03:10:51;;;;;;;6.32;4.10;;;;;;;14.04;88.89;99641.25;7398161;19;20014;-67
2023/08/02 03:13:20;;;;;;;5.15;3.67;;;;;;;14.01;88.93;99647.56;7397819;19;20070;-66
2023/08/02 03:15:48;;;;;;;6.90;4.53;;;;;;;13.98;89.21;99645.06;7397777;19;20090;-67
2023/08/02 03:18:17;;;;;;;7.45;3.72;;;;;;;13.99;89.15;99648.56;7397840;19;20540;-67
2023/08/02 03:20:48;;;;;;;7.10;3.85;;;;;;;13.96;89.60;99648.72;7398174;19;20011;-67
2023/08/02 03:23:16;;;;;;;6.57;4.13;;;;;;;13.95;89.35;99644.38;7396150;19;20428;-67
2023/08/02 03:25:45;;;;;;;9.00;4.38;;;;;;;13.94;89.14;99645.28;7397708;19;20023;-67
2023/08/02 03:28:13;;;;;;;5.40;3.80;;;;;;;13.93;89.39;99654.16;7395984;19;20082;-67
2023/08/02 03:30:41;;;;;;;6.32;3.78;;;;;;;13.91;89.71;99645.47;7397489;19;20082;-67
2023/08/02 03:33:10;;;;;;;7.18;3.60;;;;;;;13.89;89.63;99645.56;7397459;19;20038;-67
2023/08/02 03:35:38;;;;;;;7.50;4.32;;;;;;;13.88;89.94;99650.94;7397542;19;20073;-68
2023/08/02 03:38:09;;;;;;;12.75;3.72;;;;;;;13.88;89.82;99654.41;7397052;19;20082;-66
2023/08/02 03:40:38;;;;;;;5.40;3.60;;;;;;;13.86;89.83;99653.63;7395447;19;20021;-66
2023/08/02 03:43:06;;;;;;;8.05;4.00;;;;;;;13.88;90.26;99650.94;7396762;19;20438;-66
2023/08/02 03:45:34;;;;;;;4.60;3.40;;;;;;;13.87;89.97;99654.50;7396900;19;20019;-66
2023/08/02 03:48:03;;;;;;;5.13;4.10;;;;;;;13.89;90.15;99661.38;7395107;19;20014;-66
2023/08/02 03:50:31;;;;;;;5.70;3.85;;;;;;;13.91;89.92;99663.94;7396009;19;20368;-66
2023/08/02 03:53:00;;;;;;;6.43;3.90;;;;;;;13.93;89.98;99659.44;7396879;19;20010;-67
2023/08/02 03:55:31;;;;;;;4.78;3.78;;;;;;;13.95;90.41;99661.06;7395567;19;20014;-66
2023/08/02 03:57:59;;;;;;;5.32;3.42;;;;;;;13.97;90.28;99664.44;7395693;19;20050;-67
2023/08/02 04:00:28;;;;;;;5.97;3.50;;;;;;;13.98;90.14;99663.53;7397019;19;20066;-67
2023/08/02 04:02:57;;;;;;;6.43;3.63;;;;;;;14.00;90.28;99666.94;7395385;19;20035;-67
2023/08/02 04:05:26;;;;;;;5.13;3.75;;;;;;;14.03;90.39;99665.94;7396371;19;20074;-66
2023/08/02 04:07:54;;;;;;;6.93;3.55;;;;;;;14.07;90.21;99672.72;7395125;19;20090;-67
2023/08/02 04:10:24;;;;;;;6.03;4.05;;;;;;;14.09;90.33;99670.88;7396483;19;20066;-66
2023/08/02 04:12:55;;;;;;;4.85;3.63;;;;;;;14.11;90.26;99670.78;7396203;19;20494;-66
2023/08/02 04:15:24;;;;;;;6.57;3.30;;;;;;;14.14;90.35;99668.84;7395151;19;20490;-66
2023/08/02 04:17:52;;;;;;;9.30;3.92;;;;;;;14.17;89.94;99673.94;7395554;19;20023;-66
2023/08/02 04:20:21;;;;;;;5.28;3.85;;;;;;;14.20;89.96;99672.06;7396442;19;20032;-67
2023/08/02 04:22:49;;;;;;;7.82;3.38;;;;;;;14.22;90.08;99670.22;7395635;19;20371;-67
2023/08/02 04:25:18;;;;;;;6.28;3.13;;;;;;;14.22;89.87;99671.06;7394347;19;20018;-67
2023/08/02 04:27:46;;;;;;;8.32;3.85;;;;;;;14.25;89.90;99667.41;7392664;19;20014;-66
2023/08/02 04:30:17;;;;;;;4.00;3.13;;;;;;;14.26;89.54;99661.19;7395617;19;20007;-67
2023/08/02 04:32:46;;;;;;;7.15;3.70;;;;;;;14.29;89.50;99658.38;7394372;19;20424;-67
2023/08/02 04:35:14;;;;;;;6.47;3.47;;;;;;;14.32;89.38;99653.78;7393428;19;20481;-67
2023/08/02 04:37:43;;;;;;;7.28;3.20;;;;;;;14.36;89.40;99659.75;7394605;19;20055;-67
2023/08/02 04:40:19;;;;;;;7.18;2.90;;;;;;;14.39;89.54;99658.72;7393297;19;20086;-68
2023/08/02 04:42:54;;;;;;;5.88;3.25;;;;;;;14.42;89.16;99659.41;7392085;19;20085;-67
2023/08/02 04:45:27;;;;;;;4.38;3.28;;;;;;;14.46;89.04;99649.56;7395286;19;20070;-68
2023/08/02 04:47:55;;;;;;;4.57;3.33;;;;;;;14.50;89.36;99654.56;7393589;19;20015;-67
2023/08/02 04:50:24;;;;;;;4.80;3.33;;;;;;;14.55;89.23;99656.09;7394785;19;20084;-68
2023/08/02 04:52:52;;;;;;;3.95;2.60;;;;;;;14.58;89.15;99655.91;7395067;19;20066;-67
2023/08/02 04:55:21;;;;;;;7.13;3.05;;;;;;;14.61;88.96;99658.41;7393317;19;20066;-68
2023/08/02 04:57:50;;;;;;;4.40;2.67;;;;;;;14.64;88.84;99653.81;7393338;19;20194;-68
2023/08/02 05:00:19;;;;;;;5.90;2.85;;;;;;;14.70;88.58;99657.03;7393317;19;20026;-68
2023/08/02 05:02:50;;;;;;;7.25;2.65;;;;;;;14.73;88.60;99644.53;7394104;19;20019;-67
2023/08/02 05:05:19;;;;;;;4.88;2.60;;;;;;;14.76;88.22;99649.66;7394519;19;20070;-68
2023/08/02 05:07:47;;;;;;;2.80;2.50;;;;;;;14.80;88.23;99637.97;7392862;19;20476;-67
2023/08/02 05:10:15;;;;;;;7.32;3.00;;;;;;;14.87;88.06;99642.91;7394485;19;20027;-68
2023/08/02 05:12:44;;;;;;;3.92;2.38;;;;;;;14.90;88.06;99638.31;7394003;19;20494;-68
2023/08/02 05:15:13;;;;;;;7.80;3.35;;;;;;;14.95;87.70;99630.97;7393054;19;20074;-68
2023/08/02 05:17:41;;;;;;;4.68;2.72;;;;;;;15.01;87.92;99635.03;7391977;19;20497;-68
2023/08/02 05:20:13;;;;;;;3.67;2.50;;;;;;;15.04;87.68;99632.22;7393830;19;20426;-68
2023/08/02 05:22:42;;;;;;;12.27;6.40;;;;;;;15.08;87.13;99628.44;7394774;19;20019;-66
2023/08/02 05:25:11;;;;;;;10.38;3.63;;;;;;;15.10;87.24;99629.22;7395660;19;20002;-67
2023/08/02 05:27:40;;;;;;;8.43;2.63;;;;;;;15.13;87.21;99636.13;7392402;19;20120;-67
2023/08/02 05:30:10;;;;;;;2.60;2.25;;;;;;;15.14;86.91;99627.25;7393934;19;20031;-68
2023/08/02 05:32:38;;;;;;;4.25;2.25;;;;;;;15.14;86.99;99622.81;7393480;19;20019;-67
2023/08/02 05:35:07;;;;;;;7.10;2.75;;;;;;;15.18;86.80;99630.53;7392679;19;20010;-68
2023/08/02 05:37:38;;;;;;;3.67;2.17;;;;;;;15.18;86.59;99641.09;7391968;19;20022;-68
2023/08/02 05:40:08;;;;;;;4.63;2.38;;;;;;;15.23;86.47;99639.06;7396562;19;20074;-68
2023/08/02 05:42:42;;;;;;;4.53;1.92;;;;;;;15.24;85.97;99638.97;7399176;19;20017;-68
2023/08/02 05:45:17;;;;;;;3.60;2.67;;;;;;;15.30;85.61;99637.75;7401046;19;20085;-68
2023/08/02 05:47:46;;;;;;;4.70;1.98;;;;;;;15.34;85.83;99627.84;7398325;19;20032;-68
2023/08/02 05:50:14;;;;;;;5.15;1.73;;;;;;;15.38;85.37;99627.59;7400816;19;20078;-68
2023/08/02 05:52:45;;;;;;;5.25;2.20;;;;;;;15.43;84.72;99630.81;7400346;19;20018;-68
2023/08/02 05:55:14;;;;;;;4.85;1.70;;;;;;;15.51;84.73;99624.22;7399465;19;20025;-68
2023/08/02 05:57:42;;;;;;;6.22;2.08;;;;;;;15.56;84.13;99616.88;7398256;19;20481;-68
2023/08/02 06:00:13;;;;;;;6.32;1.73;;;;;;;15.61;83.94;99618.25;7401241;19;20029;-68
2023/08/02 06:02:41;;;;;;;4.88;1.70;;;;;;;15.67;83.39;99622.34;7398041;19;20014;-68
2023/08/02 06:05:11;;;;;;;6.80;2.00;;;;;;;15.72;83.04;99607.06;7400400;19;20027;-68
2023/08/02 06:07:39;;;;;;;5.25;2.20;;;;;;;15.79;82.81;99611.00;7397786;19;20079;-68
2023/08/02 06:10:11;;;;;;;3.33;1.90;;;;;;;15.87;82.50;99615.00;7400151;19;20083;-68
2023/08/02 06:12:40;;;;;;;5.30;2.00;;;;;;;15.92;81.93;99613.78;7400767;19;20018;-68
2023/08/02 06:15:10;;;;;;;5.57;2.15;;;;;;;15.98;81.94;99615.19;7399147;19;20010;-66
2023/08/02 06:17:38;;;;;;;5.35;1.90;;;;;;;16.06;81.30;99626.16;7397446;19;20408;-66
2023/08/02 06:20:09;;;;;;;4.95;1.67;;;;;;;16.10;80.76;99621.53;7397000;19;20536;-67
2023/08/02 06:22:37;;;;;;;5.93;2.30;;;;;;;16.19;80.18;99623.59;7400155;19;20018;-67
2023/08/02 06:25:07;;;;;;;3.00;1.25;;;;;;;16.24;80.20;99624.13;7399839;19;20373;-67
2023/08/02 06:27:38;;;;;;;2.88;1.75;;;;;;;16.31;79.99;99621.94;7397669;19;20066;-67
2023/08/02 06:30:08;;;;;;;3.97;1.58;;;;;;;16.39;80.00;99619.66;7399971;19;20079;-68
2023/08/02 06:32:36;;;;;;;8.77;2.00;;;;;;;16.50;79.49;99620.78;7399599;19;20014;-67
2023/08/02 06:35:05;;;;;;;5.00;1.63;;;;;;;16.60;79.44;99625.38;7397995;19;20007;-68
2023/08/02 06:37:33;;;;;;;3.45;1.13;;;;;;;16.70;78.04;99619.47;7397102;19;20014;-67
2023/08/02 06:40:02;;;;;;;7.00;1.60;;;;;;;16.76;78.15;99608.50;7399202;19;20070;-67
2023/08/02 06:42:36;;;;;;;6.82;1.55;;;;;;;16.83;78.21;99601.81;7397722;19;20423;-67
2023/08/02 06:45:14;;;;;;;6.88;2.40;;;;;;;16.89;77.93;99611.19;7399397;19;20089;-67
2023/08/02 06:47:42;;;;;;;5.07;1.77;;;;;;;16.93;77.71;99610.03;7396908;19;20015;-67
2023/08/02 06:50:11;;;;;;;2.90;1.40;;;;;;;16.98;77.17;99604.44;7398079;19;20082;-68
2023/08/02 06:52:40;;;;;;;5.10;1.67;;;;;;;17.02;77.01;99604.16;7398214;19;20477;-68
2023/08/02 06:55:09;;;;;;;6.25;1.73;;;;;;;17.07;76.90;99604.69;7397913;19;20082;-68
2023/08/02 06:57:38;;;;;;;5.30;1.80;;;;;;;17.12;76.64;99604.38;7396550;19;20090;-68
2023/08/02 07:00:08;;;;;;;6.00;1.60;;;;;;;17.16;75.89;99600.56;7398379;19;20018;-68
2023/08/02 07:02:39;;;;;;;4.03;1.50;;;;;;;17.19;74.92;99599.53;7397546;19;20416;-68
2023/08/02 07:05:08;;;;;;;5.53;1.60;;;;;;;17.23;75.52;99595.69;7396428;19;20070;-67
2023/08/02 07:07:36;;;;;;;2.90;1.40;;;;;;;17.26;72.65;99580.44;7395764;19;20010;-67
2023/08/02 07:10:05;;;;;;;3.97;1.73;;;;;;;17.31;73.28;99593.34;7397689;19;20481;-68
2023/08/02 07:12:33;;;;;;;3.38;1.80;;;;;;;17.35;73.56;99594.88;7396946;19;20018;-68
2023/08/02 07:15:01;;;;;;;4.43;1.65;;;;;;;17.44;73.29;99590.75;7397289;19;20086;-66
2023/08/02 07:17:30;;;;;;;5.85;1.60;;;;;;;17.48;72.94;99594.88;7395255;19;20011;-67
2023/08/02 07:20:01;;;;;;;4.47;1.95;;;;;;;17.53;71.94;99571.53;7398157;19;20418;-67
2023/08/02 07:22:29;;;;;;;5.88;1.42;;;;;;;17.58;71.73;99573.88;7400313;19;20042;-68
2023/08/02 07:24:58;;;;;;;4.78;1.40;;;;;;;17.62;71.93;99570.03;7397329;19;20414;-68
2023/08/02 07:27:26;;;;;;;6.30;1.55;;;;;;;17.67;70.74;99562.63;7396384;19;20031;-68
2023/08/02 07:29:56;;;;;;;4.22;1.67;;;;;;;17.70;70.42;99565.03;7397288;19;20074;-67
2023/08/02 07:32:25;;;;;;;3.60;1.40;;;;;;;17.76;70.62;99566.41;7397485;19;20025;-68
2023/08/02 07:34:54;;;;;;;5.13;1.58;;;;;;;17.82;70.70;99559.81;7396685;19;20025;-68
2023/08/02 07:37:25;;;;;;;5.90;1.40;;;;;;;17.92;70.50;99566.19;7394882;19;20019;-68
2023/08/02 07:39:53;;;;;;;3.67;1.42;;;;;;;18.02;70.37;99564.59;7396941;19;20018;-68
2023/08/02 07:42:22;;;;;;;4.85;1.80;;;;;;;18.16;70.07;99563.59;7397211;19;20014;-68
2023/08/02 07:45:03;;;;;;;3.17;1.35;;;;;;;18.30;68.32;99559.94;7395419;19;20481;-67
2023/08/02 07:47:32;;;;;;;2.95;1.67;;;;;;;18.42;69.91;99550.22;7394967;19;20097;-67
2023/08/02 07:50:00;;;;;;;3.45;1.58;;;;;;;18.53;69.03;99558.25;7396996;19;20027;-67
2023/08/02 07:52:32;;;;;;;6.00;3.35;;;;;;;18.63;69.02;99561.06;7396802;19;20074;-68
2023/08/02 07:55:00;;;;;;;6.32;2.53;;;;;;;18.72;68.83;99560.38;7395976;19;20431;-69
2023/08/02 07:57:32;;;;;;;5.03;2.03;;;;;;;18.83;68.17;99566.69;7394753;19;20082;-67
2023/08/02 08:00:01;;;;;;;3.90;1.38;;;;;;;18.92;67.22;99560.75;7396750;19;20032;-68
2023/08/02 08:02:30;;;;;;;4.63;1.40;;;;;;;18.98;66.12;99562.06;7392621;19;20018;-67
2023/08/02 08:04:58;;;;;;;4.32;1.52;;;;;;;19.03;66.30;99555.47;7396240;19;20010;-67
2023/08/02 08:07:27;;;;;;;4.05;1.92;;;;;;;19.08;65.77;99555.09;7394298;19;20028;-67
2023/08/02 08:09:58;;;;;;;5.63;1.30;;;;;;;19.14;65.62;99559.09;7395237;19;20014;-67
2023/08/02 08:12:27;;;;;;;3.70;1.40;;;;;;;19.21;65.88;99555.00;7396220;19;20035;-68
2023/08/02 08:14:56;;;;;;;3.65;1.58;;;;;;;19.27;65.67;99548.38;7395881;19;20010;-67
2023/08/02 08:17:24;;;;;;;5.75;2.20;;;;;;;19.34;65.52;99553.09;7393970;19;20082;-67
2023/08/02 08:19:53;;;;;;;4.07;1.55;;;;;;;19.40;64.65;99549.13;7395999;19;20115;-67
2023/08/02 08:22:28;;;;;;;7.85;1.77;;;;;;;19.41;64.68;99541.97;7395915;19;20062;-67
2023/08/02 08:24:59;;;;;;;5.22;1.35;;;;;;;19.40;65.06;99521.66;7395960;19;20066;-67
2023/08/02 08:27:27;;;;;;;4.00;1.40;;;;;;;19.42;64.69;99519.72;7393177;19;20062;-67
2023/08/02 08:29:56;;;;;;;4.32;1.50;;;;;;;19.43;65.06;99524.09;7395201;19;20553;-67
2023/08/02 08:32:26;;;;;;;3.67;1.30;;;;;;;19.42;64.82;99517.06;7395627;19;20014;-67
2023/08/02 08:34:56;;;;;;;2.90;1.52;;;;;;;19.44;64.93;99520.47;7394093;19;20030;-68
2023/08/02 08:37:24;;;;;;;3.03;1.25;;;;;;;19.48;64.51;99519.25;7393439;19;20010;-67
2023/08/02 08:39:53;;;;;;;3.30;1.10;;;;;;;19.55;64.67;99517.81;7394998;19;20482;-66
2023/08/02 08:42:24;;;;;;;2.58;1.30;;;;;;;19.63;64.46;99523.34;7395333;19;20014;-66
2023/08/02 08:44:56;;;;;;;3.05;1.50;;;;;;;19.71;63.90;99514.75;7393592;19;20090;-67
2023/08/02 08:47:26;;;;;;;1.98;1.00;;;;;;;19.78;62.88;99515.16;7393493;19;20477;-67
2023/08/02 08:49:59;;;;;;;2.90;1.10;;;;;;;19.88;63.43;99504.63;7393571;19;20027;-68
2023/08/02 08:52:34;;;;;;;3.10;1.05;;;;;;;19.93;62.71;99491.78;7392804;19;20507;-67
2023/08/02 08:55:03;;;;;;;1.63;1.27;;;;;;;19.98;63.16;99487.78;7393643;19;20011;-67
2023/08/02 08:57:34;;;;;;;3.50;1.10;;;;;;;20.05;62.89;99490.78;7393381;19;20010;-67
2023/08/02 09:00:03;;;;;;;3.85;1.10;;;;;;;20.14;62.78;99489.19;7392588;19;20066;-64
2023/08/02 09:02:34;;;;;;;2.25;1.23;;;;;;;20.22;62.39;99494.75;7392414;19;20027;-66
2023/08/02 09:05:04;;;;;;;3.40;1.55;;;;;;;20.27;62.33;99481.91;7392128;19;20011;-64
2023/08/02 09:07:32;;;;;;;3.92;1.73;;;;;;;20.35;62.06;99487.41;7391770;19;20018;-65
2023/08/02 09:10:01;;;;;;;4.25;1.23;;;;;;;20.45;62.11;99486.69;7393970;19;20014;-65
2023/08/02 09:12:30;;;;;;;3.15;1.27;;;;;;;20.53;61.69;99480.72;7393991;19;20011;-65
2023/08/02 09:15:05;;;;;;;2.53;1.08;;;;;;;20.64;61.17;99476.16;7399963;19;20031;-65
2023/08/02 09:17:58;;;;;;;2.92;1.38;;;;;;;20.79;60.93;99475.88;7398293;19;20021;-65
2023/08/02 09:20:28;;;;;;;3.47;1.70;;;;;;;20.94;61.28;99471.03;7401877;19;20035;-66
2023/08/02 09:22:57;;;;;;;4.53;1.40;;;;;;;21.05;60.70;99465.63;7400771;19;20018;-64
2023/08/02 09:25:26;;;;;;;5.63;1.23;;;;;;;21.15;59.89;99457.69;7398099;19;20361;-65
2023/08/02 09:27:58;;;;;;;4.18;1.23;;;;;;;21.23;59.76;99471.22;7397723;19;20368;-66
2023/08/02 09:30:32;;;;;;;8.25;2.50;;;;;;;21.28;56.90;99462.78;7398086;19;20018;-66
2023/08/02 09:33:02;;;;;;;4.20;1.65;;;;;;;21.29;57.83;99457.34;7401478;19;20017;-64
2023/08/02 09:35:34;;;;;;;3.80;1.25;;;;;;;21.34;57.27;99450.75;7401243;19;20022;-64
2023/08/02 09:38:03;;;;;;;3.03;1.00;;;;;;;21.38;58.16;99454.84;7398635;19;20015;-65
2023/08/02 09:40:38;;;;;;;3.72;1.38;;;;;;;21.42;57.17;99448.25;7401358;19;20090;-66
2023/08/02 09:43:18;;;;;;;8.18;1.58;;;;;;;21.44;57.85;99444.47;7399430;19;20134;-66
2023/08/02 09:45:56;;;;;;;1.58;1.08;;;;;;;21.46;57.00;99439.00;7397723;19;20018;-66
2023/08/02 09:48:37;;;;;;;4.88;1.50;;;;;;;21.48;56.53;99442.38;7400622;19;20014;-65
2023/08/02 09:51:12;;;;;;;3.55;1.50;;;;;;;21.52;57.28;99422.47;7401655;19;20010;-68
2023/08/02 09:53:41;;;;;;;1.92;1.15;;;;;;;21.61;57.35;99426.16;7401170;19;20081;-66
2023/08/02 09:56:11;;;;;;;3.92;1.52;;;;;;;21.73;57.97;99425.06;7397505;19;20414;-69
2023/08/02 09:58:43;;;;;;;2.58;1.52;;;;;;;21.87;57.52;99413.13;7400778;19;20039;-66
2023/08/02 10:01:15;;;;;;;3.58;1.70;;;;;;;21.98;56.91;99414.84;7398261;19;20026;-65
2023/08/02 10:03:44;;;;;;;3.35;1.48;;;;;;;22.10;57.45;99394.16;7400850;19;20020;-64
2023/08/02 10:06:14;;;;;;;5.18;1.60;;;;;;;22.23;56.76;99410.75;7399443;19;20071;-66
2023/08/02 10:08:44;;;;;;;4.90;1.65;;;;;;;22.36;55.17;99398.94;7397886;19;20018;-66
2023/08/02 10:11:13;;;;;;;3.83;1.60;;;;;;;22.43;55.46;99390.25;7399881;19;20099;-65
2023/08/02 10:13:45;;;;;;;3.58;2.08;;;;;;;22.50;55.61;99400.38;7400165;19;20090;-65
2023/08/02 10:16:19;;;;;;;3.30;1.60;;;;;;;22.58;55.09;99400.47;7398568;19;20150;-65
2023/08/02 10:18:49;;;;;;;4.22;1.33;;;;;;;22.60;55.49;99401.19;7398035;19;20010;-66
2023/08/02 10:21:19;;;;;;;3.13;1.75;;;;;;;22.66;55.01;99397.94;7397224;19;20502;-65
2023/08/02 10:23:48;;;;;;;4.03;1.85;;;;;;;22.67;54.68;99393.44;7400441;19;20019;-65
2023/08/02 10:26:18;;;;;;;3.13;1.80;;;;;;;22.70;54.67;99382.47;7397148;19;20031;-66
2023/08/02 10:28:47;;;;;;;2.92;1.67;;;;;;;22.74;54.64;99378.50;7399381;19;20540;-64
2023/08/02 10:31:19;;;;;;;3.65;1.65;;;;;;;22.79;54.19;99373.56;7397018;19;20018;-65
2023/08/02 10:33:47;;;;;;;6.18;1.65;;;;;;;22.83;54.08;99382.97;7398834;19;20014;-65
2023/08/02 10:36:16;;;;;;;3.60;1.77;;;;;;;22.84;53.24;99382.00;7398071;19;20427;-66
2023/08/02 10:38:53;;;;;;;2.85;1.65;;;;;;;22.87;52.85;99384.34;7397330;19;20078;-66
2023/08/02 10:41:23;;;;;;;4.43;1.98;;;;;;;22.93;53.71;99369.56;7396858;19;20014;-66
2023/08/02 10:44:14;;;;;;;3.55;1.50;;;;;;;22.98;52.57;99375.31;7396105;19;20018;-66
2023/08/02 10:46:45;;;;;;;4.80;2.08;;;;;;;23.00;52.98;99375.16;7397096;19;20017;-66
2023/08/02 10:49:39;;;;;;;3.53;1.80;;;;;;;23.00;51.81;99364.47;7398721;19;20011;-69
2023/08/02 10:52:22;;;;;;;;;;;;;;;23.03;52.26;99364.19;7399293;19;20022;-68
2023/08/02 10:55:12;;;;;;;3.65;1.73;;;;;;;23.03;51.84;99370.38;7398257;19;19986;-67
2023/08/02 10:57:42;;;;;;;3.45;2.00;;;;;;;23.07;52.62;99362.91;7397158;19;20017;-67
2023/08/02 11:00:23;;;;;;;3.28;1.80;;;;;;;23.09;52.60;99356.41;7398904;19;20086;-68
2023/08/02 11:02:55;;;;;;;3.45;1.25;;;;;;;23.11;53.06;99361.59;7396707;19;20014;-67
2023/08/02 11:05:40;;;;;;;4.35;2.10;;;;;;;23.11;52.39;99356.25;7398654;19;20070;-67
2023/08/02 11:08:10;;;;;;;3.95;2.65;;;;;;;23.07;52.38;99350.34;7398494;19;20014;-68
2023/08/02 11:10:53;;;;;;;4.95;3.15;;;;;;;22.99;52.26;99342.25;7397577;19;20473;-68
2023/08/02 11:13:22;;;;;;;4.93;2.15;;;;;;;22.92;52.76;99335.78;7397821;19;20029;-68
2023/08/02 11:16:02;;;;;;;3.55;1.92;;;;;;;22.77;52.38;99333.63;7397324;19;20019;-67
2023/08/02 11:18:35;;;;;;;4.47;2.20;;;;;;;22.69;52.72;99336.16;7397976;19;20007;-68
2023/08/02 11:21:12;;;;;;;3.63;2.25;;;;;;;22.61;52.02;99315.50;7395788;19;20071;-67
2023/08/02 11:23:40;;;;;;;4.72;1.98;;;;;;;22.63;53.17;99314.53;7397235;19;20014;-67
2023/08/02 11:26:10;;;;;;;4.00;1.98;;;;;;;22.64;52.89;99314.38;7395389;19;20014;-67
2023/08/02 11:28:44;;;;;;;3.85;2.13;;;;;;;22.68;52.65;99315.75;7396998;19;20082;-67
2023/08/02 11:31:14;;;;;;;6.30;2.50;;;;;;;22.72;52.98;99308.28;7398052;19;20086;-67
2023/08/02 11:33:45;;;;;;;4.82;2.00;;;;;;;22.73;52.21;99310.81;7397361;19;20085;-67
2023/08/02 11:36:13;;;;;;;3.03;1.90;;;;;;;22.77;52.85;99306.03;7396850;19;20074;-67
2023/08/02 11:38:42;;;;;;;4.70;2.00;;;;;;;22.83;52.94;99294.75;7391757;19;20495;-67
2023/08/02 11:41:17;;;;;;;3.38;1.63;;;;;;;22.91;52.29;99291.31;7394493;19;20019;-67
2023/08/02 11:43:58;;;;;;;3.35;1.92;;;;;;;22.98;52.23;99297.75;7393026;19;21476;-67
2023/08/02 11:46:27;;;;;;;2.92;1.98;;;;;;;23.08;52.31;99306.56;7394599;19;20102;-68
2023/08/02 11:49:08;;;;;;;3.30;1.90;;;;;;;23.16;51.19;99292.47;7396457;19;20025;-67